sensor_id;sensor_type;location;lat;lon;timestamp;pressure;altitude;pressure_sealevel;temperature;humidity
7474;BME280;3778;42.572;23.426;2023-02-19T00:01:27;95124.56;;;-146.70;57.66
7474;BME280;3778;42.572;23.426;2023-02-19T00:03:56;95151.66;;;-146.70;59.12
7474;BME280;3778;42.572;23.426;2023-02-19T00:06:25;95107.91;;;-146.70;58.92
7474;BME280;3778;42.572;23.426;2023-02-19T00:08:52;95116.25;;;-146.70;58.07
7474;BME280;3778;42.572;23.426;2023-02-19T00:11:20;95116.25;;;-146.70;58.66
7474;BME280;3778;42.572;23.426;2023-02-19T00:13:49;95132.91;;;-146.70;58.41
7474;BME280;3778;42.572;23.426;2023-02-19T00:16:19;95114.16;;;-146.70;58.08
7474;BME280;3778;42.572;23.426;2023-02-19T00:18:46;95112.06;;;-146.70;58.98
7474;BME280;3778;42.572;23.426;2023-02-19T00:21:14;95141.25;;;-146.70;58.47
7474;BME280;3778;42.572;23.426;2023-02-19T00:23:41;95107.91;;;-146.70;58.25
7474;BME280;3778;42.572;23.426;2023-02-19T00:26:09;95160.00;;;-146.70;58.89
7474;BME280;3778;42.572;23.426;2023-02-19T00:28:36;95149.59;;;-146.70;58.90
7474;BME280;3778;42.572;23.426;2023-02-19T00:31:04;95162.09;;;-146.70;59.39
7474;BME280;3778;42.572;23.426;2023-02-19T00:33:33;95168.34;;;-146.70;59.27
7474;BME280;3778;42.572;23.426;2023-02-19T00:36:00;95122.50;;;-146.70;60.26
7474;BME280;3778;42.572;23.426;2023-02-19T00:38:27;95141.25;;;-146.70;59.63
7474;BME280;3778;42.572;23.426;2023-02-19T00:40:54;95128.75;;;-146.70;59.82
7474;BME280;3778;42.572;23.426;2023-02-19T00:43:21;95153.75;;;-146.70;60.19
7474;BME280;3778;42.572;23.426;2023-02-19T00:45:47;95153.75;;;-146.70;59.53
7474;BME280;3778;42.572;23.426;2023-02-19T00:48:14;95135.00;;;-146.70;59.74
7474;BME280;3778;42.572;23.426;2023-02-19T00:50:42;95128.75;;;-146.70;60.61
7474;BME280;3778;42.572;23.426;2023-02-19T00:53:09;95149.59;;;-146.70;60.14
7474;BME280;3778;42.572;23.426;2023-02-19T00:55:36;95168.34;;;-146.70;60.42
7474;BME280;3778;42.572;23.426;2023-02-19T00:58:02;95216.28;;;-146.70;61.10
7474;BME280;3778;42.572;23.426;2023-02-19T01:00:29;95172.50;;;-146.70;60.80
7474;BME280;3778;42.572;23.426;2023-02-19T01:02:57;95191.28;;;-146.70;61.05
7474;BME280;3778;42.572;23.426;2023-02-19T01:05:24;95157.91;;;-146.70;60.47
7474;BME280;3778;42.572;23.426;2023-02-19T01:07:52;95149.59;;;-146.70;59.82
7474;BME280;3778;42.572;23.426;2023-02-19T01:10:19;95155.84;;;-146.70;60.25
7474;BME280;3778;42.572;23.426;2023-02-19T01:12:46;95153.75;;;-146.70;60.91
7474;BME280;3778;42.572;23.426;2023-02-19T01:15:12;95153.75;;;-146.70;61.09
7474;BME280;3778;42.572;23.426;2023-02-19T01:17:39;95149.59;;;-146.70;61.17
7474;BME280;3778;42.572;23.426;2023-02-19T01:20:06;95232.97;;;-146.70;60.45
7474;BME280;3778;42.572;23.426;2023-02-19T01:22:33;95174.59;;;-146.70;60.27
7474;BME280;3778;42.572;23.426;2023-02-19T01:25:01;95168.34;;;-146.70;60.67
7474;BME280;3778;42.572;23.426;2023-02-19T01:27:27;95224.63;;;-146.70;60.65
7474;BME280;3778;42.572;23.426;2023-02-19T01:29:54;95162.09;;;-146.70;60.45
7474;BME280;3778;42.572;23.426;2023-02-19T01:32:21;95141.25;;;-146.70;60.18
7474;BME280;3778;42.572;23.426;2023-02-19T01:34:47;95130.81;;;-146.70;61.28
7474;BME280;3778;42.572;23.426;2023-02-19T01:37:14;95143.34;;;-146.70;61.45
7474;BME280;3778;42.572;23.426;2023-02-19T01:39:41;95176.69;;;-146.70;61.07
7474;BME280;3778;42.572;23.426;2023-02-19T01:42:12;95178.75;;;-146.70;61.02
7474;BME280;3778;42.572;23.426;2023-02-19T01:48:06;95187.09;;;-146.70;60.83
7474;BME280;3778;42.572;23.426;2023-02-19T01:50:39;95178.75;;;-146.70;61.45
7474;BME280;3778;42.572;23.426;2023-02-19T01:53:08;95189.19;;;-146.70;61.71
7474;BME280;3778;42.572;23.426;2023-02-19T01:55:37;95224.63;;;-146.70;61.52
7474;BME280;3778;42.572;23.426;2023-02-19T01:58:07;95153.75;;;-146.70;61.40
7474;BME280;3778;42.572;23.426;2023-02-19T02:00:34;95197.53;;;-146.70;61.49
7474;BME280;3778;42.572;23.426;2023-02-19T02:03:02;95199.59;;;-146.70;61.77
7474;BME280;3778;42.572;23.426;2023-02-19T02:05:44;95251.72;;;-146.70;62.04
7474;BME280;3778;42.572;23.426;2023-02-19T02:08:13;95243.38;;;-146.70;64.19
7474;BME280;3778;42.572;23.426;2023-02-19T02:10:58;95226.69;;;-146.70;63.73
7474;BME280;3778;42.572;23.426;2023-02-19T02:13:27;95216.28;;;-146.70;62.94
7474;BME280;3778;42.572;23.426;2023-02-19T02:16:00;95251.72;;;-146.70;63.03
7474;BME280;3778;42.572;23.426;2023-02-19T02:18:36;95201.69;;;-146.70;62.86
7474;BME280;3778;42.572;23.426;2023-02-19T02:24:24;95180.84;;;-146.70;62.57
7474;BME280;3778;42.572;23.426;2023-02-19T02:27:05;95191.28;;;-146.70;62.22
7474;BME280;3778;42.572;23.426;2023-02-19T02:32:50;95245.47;;;-146.70;61.73
7474;BME280;3778;42.572;23.426;2023-02-19T02:35:20;95182.94;;;-146.70;62.00
7474;BME280;3778;42.572;23.426;2023-02-19T02:37:48;95195.44;;;-146.70;61.56
7474;BME280;3778;42.572;23.426;2023-02-19T02:40:17;95199.59;;;-146.70;62.42
7474;BME280;3778;42.572;23.426;2023-02-19T02:42:44;95174.59;;;-146.70;61.38
7474;BME280;3778;42.572;23.426;2023-02-19T02:45:24;95210.03;;;-146.70;61.49
7474;BME280;3778;42.572;23.426;2023-02-19T02:48:03;95176.69;;;-146.70;62.10
7474;BME280;3778;42.572;23.426;2023-02-19T02:50:33;95212.13;;;-146.70;62.27
7474;BME280;3778;42.572;23.426;2023-02-19T02:53:05;95212.13;;;-146.70;62.67
7474;BME280;3778;42.572;23.426;2023-02-19T02:55:51;95203.78;;;-146.70;62.02
7474;BME280;3778;42.572;23.426;2023-02-19T02:58:19;95187.09;;;-146.70;61.63
7474;BME280;3778;42.572;23.426;2023-02-19T03:00:53;95199.59;;;-146.70;61.22
7474;BME280;3778;42.572;23.426;2023-02-19T03:03:42;95201.69;;;-146.70;61.69
7474;BME280;3778;42.572;23.426;2023-02-19T03:06:12;95212.13;;;-146.70;62.02
7474;BME280;3778;42.572;23.426;2023-02-19T03:08:44;95187.09;;;-146.70;61.35
7474;BME280;3778;42.572;23.426;2023-02-19T03:11:14;95145.41;;;-146.70;61.12
7474;BME280;3778;42.572;23.426;2023-02-19T03:14:03;95149.59;;;-146.70;61.48
7474;BME280;3778;42.572;23.426;2023-02-19T03:16:50;95185.03;;;-146.70;62.00
7474;BME280;3778;42.572;23.426;2023-02-19T03:19:43;95160.00;;;-146.70;62.53
7474;BME280;3778;42.572;23.426;2023-02-19T03:22:16;95207.94;;;-146.70;62.18
7474;BME280;3778;42.572;23.426;2023-02-19T03:24:49;95145.41;;;-146.70;61.50
7474;BME280;3778;42.572;23.426;2023-02-19T03:27:36;95145.41;;;-146.70;61.15
7474;BME280;3778;42.572;23.426;2023-02-19T03:30:08;95172.50;;;-146.70;61.17
7474;BME280;3778;42.572;23.426;2023-02-19T03:32:41;95228.78;;;-146.70;60.48
7474;BME280;3778;42.572;23.426;2023-02-19T03:35:12;95155.84;;;-146.70;60.13
7474;BME280;3778;42.572;23.426;2023-02-19T03:37:43;95120.41;;;-146.70;59.87
7474;BME280;3778;42.572;23.426;2023-02-19T03:40:11;95143.34;;;-146.70;60.01
7474;BME280;3778;42.572;23.426;2023-02-19T03:42:42;95195.44;;;-146.70;60.43
7474;BME280;3778;42.572;23.426;2023-02-19T03:45:24;95178.75;;;-146.70;60.13
7474;BME280;3778;42.572;23.426;2023-02-19T03:48:05;95139.16;;;-146.70;60.85
7474;BME280;3778;42.572;23.426;2023-02-19T03:50:41;95222.53;;;-146.70;61.73
7474;BME280;3778;42.572;23.426;2023-02-19T03:53:13;95210.03;;;-146.70;62.01
7474;BME280;3778;42.572;23.426;2023-02-19T03:55:47;95193.34;;;-146.70;61.61
7474;BME280;3778;42.572;23.426;2023-02-19T03:58:23;95191.28;;;-146.70;61.99
7474;BME280;3778;42.572;23.426;2023-02-19T04:00:56;95262.13;;;-146.70;62.86
7474;BME280;3778;42.572;23.426;2023-02-19T04:03:31;95237.13;;;-146.70;63.31
7474;BME280;3778;42.572;23.426;2023-02-19T04:06:03;95262.13;;;-146.70;63.34
7474;BME280;3778;42.572;23.426;2023-02-19T04:08:33;95228.78;;;-146.70;63.93
7474;BME280;3778;42.572;23.426;2023-02-19T04:11:02;95220.44;;;-146.70;64.12
7474;BME280;3778;42.572;23.426;2023-02-19T04:13:34;95235.03;;;-146.70;64.06
7474;BME280;3778;42.572;23.426;2023-02-19T04:16:06;95145.41;;;-146.70;63.89
7474;BME280;3778;42.572;23.426;2023-02-19T04:18:38;95239.22;;;-146.70;63.98
7474;BME280;3778;42.572;23.426;2023-02-19T04:21:07;95253.78;;;-146.70;62.59
7474;BME280;3778;42.572;23.426;2023-02-19T04:23:38;95230.88;;;-146.70;62.82
7474;BME280;3778;42.572;23.426;2023-02-19T04:26:07;95170.44;;;-146.70;62.25
7474;BME280;3778;42.572;23.426;2023-02-19T04:28:35;95220.44;;;-146.70;62.09
7474;BME280;3778;42.572;23.426;2023-02-19T04:31:03;95224.63;;;-146.70;62.49
7474;BME280;3778;42.572;23.426;2023-02-19T04:33:30;95228.78;;;-146.70;62.52
7474;BME280;3778;42.572;23.426;2023-02-19T04:35:58;95237.13;;;-146.70;62.36
7474;BME280;3778;42.572;23.426;2023-02-19T04:38:25;95249.63;;;-146.70;62.77
7474;BME280;3778;42.572;23.426;2023-02-19T04:40:52;95232.97;;;-146.70;63.26
7474;BME280;3778;42.572;23.426;2023-02-19T04:43:19;95272.56;;;-146.70;63.71
7474;BME280;3778;42.572;23.426;2023-02-19T04:45:46;95299.66;;;-146.70;63.89
7474;BME280;3778;42.572;23.426;2023-02-19T04:48:13;95280.91;;;-146.70;64.14
7474;BME280;3778;42.572;23.426;2023-02-19T04:50:40;95285.06;;;-146.70;64.40
7474;BME280;3778;42.572;23.426;2023-02-19T04:53:08;95268.38;;;-146.70;64.51
7474;BME280;3778;42.572;23.426;2023-02-19T04:55:36;95291.31;;;-146.70;64.04
7474;BME280;3778;42.572;23.426;2023-02-19T04:58:03;95251.72;;;-146.70;64.08
7474;BME280;3778;42.572;23.426;2023-02-19T05:00:30;95301.75;;;-146.70;64.48
7474;BME280;3778;42.572;23.426;2023-02-19T05:02:58;95266.31;;;-146.70;64.52
7474;BME280;3778;42.572;23.426;2023-02-19T05:05:25;95239.22;;;-146.70;64.18
7474;BME280;3778;42.572;23.426;2023-02-19T05:07:52;95278.81;;;-146.70;63.87
7474;BME280;3778;42.572;23.426;2023-02-19T05:10:20;95260.06;;;-146.70;63.70
7474;BME280;3778;42.572;23.426;2023-02-19T05:12:47;95210.03;;;-146.70;63.20
7474;BME280;3778;42.572;23.426;2023-02-19T05:15:14;95170.44;;;-146.70;62.60
7474;BME280;3778;42.572;23.426;2023-02-19T05:17:41;95220.44;;;-146.70;62.72
7474;BME280;3778;42.572;23.426;2023-02-19T05:20:08;95255.88;;;-146.70;62.15
7474;BME280;3778;42.572;23.426;2023-02-19T05:22:34;95178.75;;;-146.70;60.97
7474;BME280;3778;42.572;23.426;2023-02-19T05:25:01;95149.59;;;-146.70;59.15
7474;BME280;3778;42.572;23.426;2023-02-19T05:27:30;95153.75;;;-146.70;58.36
7474;BME280;3778;42.572;23.426;2023-02-19T05:29:57;95182.94;;;-146.70;59.05
7474;BME280;3778;42.572;23.426;2023-02-19T05:32:24;95141.25;;;-146.70;59.12
7474;BME280;3778;42.572;23.426;2023-02-19T05:34:51;95189.19;;;-146.70;59.76
7474;BME280;3778;42.572;23.426;2023-02-19T05:37:17;95180.84;;;-146.70;59.91
7474;BME280;3778;42.572;23.426;2023-02-19T05:39:44;95141.25;;;-146.70;59.80
7474;BME280;3778;42.572;23.426;2023-02-19T05:42:12;95145.41;;;-146.70;58.76
7474;BME280;3778;42.572;23.426;2023-02-19T05:44:40;95103.72;;;-146.70;58.89
7474;BME280;3778;42.572;23.426;2023-02-19T05:47:07;95091.22;;;-146.70;59.28
7474;BME280;3778;42.572;23.426;2023-02-19T05:49:34;95124.56;;;-146.70;59.28
7474;BME280;3778;42.572;23.426;2023-02-19T05:52:01;95128.75;;;-146.70;59.23
7474;BME280;3778;42.572;23.426;2023-02-19T05:54:28;95099.56;;;-146.70;58.98
7474;BME280;3778;42.572;23.426;2023-02-19T05:56:54;95137.06;;;-146.70;58.42
7474;BME280;3778;42.572;23.426;2023-02-19T05:59:23;95097.47;;;-146.70;58.21
7474;BME280;3778;42.572;23.426;2023-02-19T06:01:52;95082.88;;;-146.70;57.67
7474;BME280;3778;42.572;23.426;2023-02-19T06:04:20;95097.47;;;-146.70;57.22
7474;BME280;3778;42.572;23.426;2023-02-19T06:06:47;95118.31;;;-146.70;56.91
7474;BME280;3778;42.572;23.426;2023-02-19T06:09:14;95078.72;;;-146.70;56.76
7474;BME280;3778;42.572;23.426;2023-02-19T06:11:41;95062.03;;;-146.70;56.55
7474;BME280;3778;42.572;23.426;2023-02-19T06:14:10;95028.69;;;-146.70;56.49
7474;BME280;3778;42.572;23.426;2023-02-19T06:16:37;95041.22;;;-146.70;55.95
7474;BME280;3778;42.572;23.426;2023-02-19T06:19:05;95032.88;;;-146.70;55.14
7474;BME280;3778;42.572;23.426;2023-02-19T06:21:32;95020.38;;;-146.70;55.64
7474;BME280;3778;42.572;23.426;2023-02-19T06:24:03;94995.34;;;-146.70;55.76
7474;BME280;3778;42.572;23.426;2023-02-19T06:26:30;95012.03;;;-146.70;55.22
7474;BME280;3778;42.572;23.426;2023-02-19T06:28:57;94980.75;;;-146.70;55.13
7474;BME280;3778;42.572;23.426;2023-02-19T06:31:24;94997.44;;;-146.70;55.52
7474;BME280;3778;42.572;23.426;2023-02-19T06:33:50;95039.13;;;-146.70;55.75
7474;BME280;3778;42.572;23.426;2023-02-19T06:36:19;95014.13;;;-146.70;55.58
7474;BME280;3778;42.572;23.426;2023-02-19T06:38:46;94987.03;;;-146.70;54.81
7474;BME280;3778;42.572;23.426;2023-02-19T06:41:13;94976.59;;;-146.70;53.98
7474;BME280;3778;42.572;23.426;2023-02-19T06:43:40;94972.44;;;-146.70;54.76
7474;BME280;3778;42.572;23.426;2023-02-19T06:46:07;94978.69;;;-146.70;55.25
7474;BME280;3778;42.572;23.426;2023-02-19T06:48:34;94982.84;;;-146.70;55.53
7474;BME280;3778;42.572;23.426;2023-02-19T06:51:01;94982.84;;;-146.70;55.44
7474;BME280;3778;42.572;23.426;2023-02-19T06:53:29;94995.34;;;-146.70;54.72
7474;BME280;3778;42.572;23.426;2023-02-19T06:55:57;94903.66;;;-146.70;54.08
7474;BME280;3778;42.572;23.426;2023-02-19T06:58:24;94918.25;;;-146.70;53.94
7474;BME280;3778;42.572;23.426;2023-02-19T07:00:51;94962.00;;;-146.70;54.00
7474;BME280;3778;42.572;23.426;2023-02-19T07:03:18;94922.41;;;-146.70;54.21
7474;BME280;3778;42.572;23.426;2023-02-19T07:05:45;94945.34;;;-146.70;54.74
7474;BME280;3778;42.572;23.426;2023-02-19T07:08:12;94955.75;;;-146.70;54.33
7474;BME280;3778;42.572;23.426;2023-02-19T07:10:42;94886.97;;;-146.70;53.96
7474;BME280;3778;42.572;23.426;2023-02-19T07:13:09;94909.91;;;-146.70;53.67
7474;BME280;3778;42.572;23.426;2023-02-19T07:15:36;94895.31;;;-146.70;53.68
7474;BME280;3778;42.572;23.426;2023-02-19T07:18:03;94903.66;;;-146.70;54.14
7474;BME280;3778;42.572;23.426;2023-02-19T07:20:34;94893.22;;;-146.70;53.79
7474;BME280;3778;42.572;23.426;2023-02-19T07:23:01;94866.13;;;-146.70;53.36
7474;BME280;3778;42.572;23.426;2023-02-19T07:25:28;94920.31;;;-146.70;52.68
7474;BME280;3778;42.572;23.426;2023-02-19T07:27:56;94868.22;;;-146.70;52.15
7474;BME280;3778;42.572;23.426;2023-02-19T07:30:23;94822.38;;;-146.70;52.43
7474;BME280;3778;42.572;23.426;2023-02-19T07:32:49;94847.38;;;-146.70;52.13
7474;BME280;3778;42.572;23.426;2023-02-19T07:35:16;94818.22;;;-146.70;51.90
7474;BME280;3778;42.572;23.426;2023-02-19T07:37:43;94832.78;;;-146.70;51.40
7474;BME280;3778;42.572;23.426;2023-02-19T07:40:09;94818.22;;;-146.70;51.01
7474;BME280;3778;42.572;23.426;2023-02-19T07:42:36;94766.09;;;-146.70;50.42
7474;BME280;3778;42.572;23.426;2023-02-19T07:45:05;94774.44;;;-146.70;50.33
7474;BME280;3778;42.572;23.426;2023-02-19T07:47:32;94722.34;;;-146.70;48.74
7474;BME280;3778;42.572;23.426;2023-02-19T07:49:58;94705.66;;;-146.70;47.18
7474;BME280;3778;42.572;23.426;2023-02-19T07:52:25;94661.91;;;-146.70;47.19
7474;BME280;3778;42.572;23.426;2023-02-19T07:54:52;94628.56;;;-146.70;47.08
7474;BME280;3778;42.572;23.426;2023-02-19T07:57:19;94647.31;;;-146.70;47.80
7474;BME280;3778;42.572;23.426;2023-02-19T07:59:45;94674.41;;;-146.70;47.82
7474;BME280;3778;42.572;23.426;2023-02-19T08:02:17;94634.81;;;-146.70;46.29
7474;BME280;3778;42.572;23.426;2023-02-19T08:05:02;94591.06;;;-146.70;45.82
7474;BME280;3778;42.572;23.426;2023-02-19T08:07:32;94597.31;;;-146.70;44.91
7474;BME280;3778;42.572;23.426;2023-02-19T08:10:00;94580.63;;;-146.70;44.82
7474;BME280;3778;42.572;23.426;2023-02-19T08:12:44;94551.47;;;-146.70;46.07
7474;BME280;3778;42.572;23.426;2023-02-19T08:15:31;94561.88;;;-146.70;44.62
7474;BME280;3778;42.572;23.426;2023-02-19T08:17:59;94591.06;;;-146.70;44.36
7474;BME280;3778;42.572;23.426;2023-02-19T08:20:26;94549.38;;;-146.70;44.36
7474;BME280;3778;42.572;23.426;2023-02-19T08:22:53;94522.28;;;-146.70;44.69
7474;BME280;3778;42.572;23.426;2023-02-19T08:25:20;94532.69;;;-146.70;44.19
7474;BME280;3778;42.572;23.426;2023-02-19T08:27:46;94511.84;;;-146.70;43.74
7474;BME280;3778;42.572;23.426;2023-02-19T08:30:13;94491.03;;;-146.70;43.48
7474;BME280;3778;42.572;23.426;2023-02-19T08:32:40;94443.09;;;-146.70;43.27
7474;BME280;3778;42.572;23.426;2023-02-19T08:35:08;94459.75;;;-146.70;42.82
7474;BME280;3778;42.572;23.426;2023-02-19T08:37:34;94441.00;;;-146.70;43.30
7474;BME280;3778;42.572;23.426;2023-02-19T08:40:01;94476.44;;;-146.70;42.21
7474;BME280;3778;42.572;23.426;2023-02-19T08:42:28;94516.03;;;-146.70;42.92
7474;BME280;3778;42.572;23.426;2023-02-19T08:44:55;94449.34;;;-146.70;42.66
7474;BME280;3778;42.572;23.426;2023-02-19T08:47:22;94449.34;;;-146.70;42.04
7474;BME280;3778;42.572;23.426;2023-02-19T08:49:48;94449.34;;;-146.70;42.02
7474;BME280;3778;42.572;23.426;2023-02-19T08:52:16;94424.34;;;-146.70;43.25
7474;BME280;3778;42.572;23.426;2023-02-19T08:54:43;94411.84;;;-146.70;41.82
7474;BME280;3778;42.572;23.426;2023-02-19T08:57:10;94382.66;;;-146.70;41.52
7474;BME280;3778;42.572;23.426;2023-02-19T08:59:36;94393.09;;;-146.70;41.87
7474;BME280;3778;42.572;23.426;2023-02-19T09:02:03;94403.50;;;-146.70;41.42
7474;BME280;3778;42.572;23.426;2023-02-19T09:04:30;94382.66;;;-146.70;42.03
7474;BME280;3778;42.572;23.426;2023-02-19T09:06:57;94361.81;;;-146.70;41.40
7474;BME280;3778;42.572;23.426;2023-02-19T09:09:26;94343.06;;;-146.70;41.15
7474;BME280;3778;42.572;23.426;2023-02-19T09:11:53;94278.47;;;-146.70;41.18
7474;BME280;3778;42.572;23.426;2023-02-19T09:14:20;94328.47;;;-146.70;41.44
7474;BME280;3778;42.572;23.426;2023-02-19T09:16:47;94299.31;;;-146.70;41.52
7474;BME280;3778;42.572;23.426;2023-02-19T09:19:13;94297.22;;;-146.70;42.58
7474;BME280;3778;42.572;23.426;2023-02-19T09:21:41;94261.81;;;-146.70;40.68
7474;BME280;3778;42.572;23.426;2023-02-19T09:24:08;94336.81;;;-146.70;41.08
7474;BME280;3778;42.572;23.426;2023-02-19T09:26:36;94313.91;;;-146.70;41.50
7474;BME280;3778;42.572;23.426;2023-02-19T09:29:03;94290.97;;;-146.70;41.52
7474;BME280;3778;42.572;23.426;2023-02-19T09:31:30;94290.97;;;-146.70;40.51
7474;BME280;3778;42.572;23.426;2023-02-19T09:33:59;94282.63;;;-146.70;40.15
7474;BME280;3778;42.572;23.426;2023-02-19T09:36:26;94240.97;;;-146.70;40.97
7474;BME280;3778;42.572;23.426;2023-02-19T09:38:52;94240.97;;;-146.70;40.31
7474;BME280;3778;42.572;23.426;2023-02-19T09:41:24;94238.88;;;-146.70;40.93
7474;BME280;3778;42.572;23.426;2023-02-19T09:43:57;94282.63;;;-146.70;40.94
7474;BME280;3778;42.572;23.426;2023-02-19T09:46:29;94263.88;;;-146.70;40.15
7474;BME280;3778;42.572;23.426;2023-02-19T09:49:02;94232.63;;;-146.70;40.19
7474;BME280;3778;42.572;23.426;2023-02-19T09:51:31;94188.88;;;-146.70;40.57
7474;BME280;3778;42.572;23.426;2023-02-19T09:54:00;94215.97;;;-146.70;40.50
7474;BME280;3778;42.572;23.426;2023-02-19T09:56:28;94220.13;;;-146.70;39.68
7474;BME280;3778;42.572;23.426;2023-02-19T09:58:58;94140.94;;;-146.70;39.30
7474;BME280;3778;42.572;23.426;2023-02-19T10:01:28;94147.19;;;-146.70;39.59
7474;BME280;3778;42.572;23.426;2023-02-19T10:03:56;94099.28;;;-146.70;38.58
7474;BME280;3778;42.572;23.426;2023-02-19T10:06:25;94099.28;;;-146.70;39.10
7474;BME280;3778;42.572;23.426;2023-02-19T10:08:55;94132.59;;;-146.70;39.36
7474;BME280;3778;42.572;23.426;2023-02-19T10:11:25;94090.94;;;-146.70;38.69
7474;BME280;3778;42.572;23.426;2023-02-19T10:14:00;94130.53;;;-146.70;38.72
7474;BME280;3778;42.572;23.426;2023-02-19T10:16:29;94090.94;;;-146.70;38.58
7474;BME280;3778;42.572;23.426;2023-02-19T10:18:56;94090.94;;;-146.70;38.62
7474;BME280;3778;42.572;23.426;2023-02-19T10:21:25;94068.00;;;-146.70;38.36
7474;BME280;3778;42.572;23.426;2023-02-19T10:23:54;94034.69;;;-146.70;37.55
7474;BME280;3778;42.572;23.426;2023-02-19T10:26:23;94036.75;;;-146.70;37.90
7474;BME280;3778;42.572;23.426;2023-02-19T10:28:50;94059.69;;;-146.70;38.45
7474;BME280;3778;42.572;23.426;2023-02-19T10:31:21;94028.41;;;-146.70;37.72
7474;BME280;3778;42.572;23.426;2023-02-19T10:33:49;94028.41;;;-146.70;37.40
7474;BME280;3778;42.572;23.426;2023-02-19T10:36:23;94055.50;;;-146.70;37.29
7474;BME280;3778;42.572;23.426;2023-02-19T10:38:51;94076.34;;;-146.70;37.92
7474;BME280;3778;42.572;23.426;2023-02-19T10:41:20;94013.84;;;-146.70;37.77
7474;BME280;3778;42.572;23.426;2023-02-19T10:43:53;93990.91;;;-146.70;37.63
7474;BME280;3778;42.572;23.426;2023-02-19T10:46:25;94013.84;;;-146.70;37.36
7474;BME280;3778;42.572;23.426;2023-02-19T10:48:53;93903.41;;;-146.70;37.82
7474;BME280;3778;42.572;23.426;2023-02-19T10:51:29;93988.84;;;-146.70;37.50
7474;BME280;3778;42.572;23.426;2023-02-19T10:54:03;93965.91;;;-146.70;37.28
7474;BME280;3778;42.572;23.426;2023-02-19T10:56:30;93982.59;;;-146.70;37.34
7474;BME280;3778;42.572;23.426;2023-02-19T10:59:15;93982.59;;;-146.70;37.23
7474;BME280;3778;42.572;23.426;2023-02-19T11:01:54;93928.41;;;-146.70;36.93
7474;BME280;3778;42.572;23.426;2023-02-19T11:04:23;93945.06;;;-146.70;36.60
7474;BME280;3778;42.572;23.426;2023-02-19T11:06:50;93930.50;;;-146.70;36.71
7474;BME280;3778;42.572;23.426;2023-02-19T11:09:26;93907.56;;;-146.70;36.68
7474;BME280;3778;42.572;23.426;2023-02-19T11:11:55;93878.41;;;-146.70;37.42
7474;BME280;3778;42.572;23.426;2023-02-19T11:14:24;93872.16;;;-146.70;36.45
7474;BME280;3778;42.572;23.426;2023-02-19T11:16:55;93863.81;;;-146.70;35.95
7474;BME280;3778;42.572;23.426;2023-02-19T11:19:26;93876.31;;;-146.70;35.66
7474;BME280;3778;42.572;23.426;2023-02-19T11:21:54;93836.72;;;-146.70;35.79
7474;BME280;3778;42.572;23.426;2023-02-19T11:24:25;93886.75;;;-146.70;35.35
7474;BME280;3778;42.572;23.426;2023-02-19T11:26:54;93907.56;;;-146.70;35.43
7474;BME280;3778;42.572;23.426;2023-02-19T11:29:23;93820.06;;;-146.70;36.19
7474;BME280;3778;42.572;23.426;2023-02-19T11:31:54;93947.16;;;-146.70;35.36
7474;BME280;3778;42.572;23.426;2023-02-19T11:34:27;93822.16;;;-146.70;34.95
7474;BME280;3778;42.572;23.426;2023-02-19T11:37:11;93851.31;;;-146.70;35.26
7474;BME280;3778;42.572;23.426;2023-02-19T11:39:39;93813.81;;;-146.70;34.89
7474;BME280;3778;42.572;23.426;2023-02-19T11:42:20;93799.22;;;-146.70;34.54
7474;BME280;3778;42.572;23.426;2023-02-19T11:44:57;93765.88;;;-146.70;34.57
7474;BME280;3778;42.572;23.426;2023-02-19T11:47:39;93763.81;;;-146.70;34.56
7474;BME280;3778;42.572;23.426;2023-02-19T11:50:19;93713.81;;;-146.70;35.63
7474;BME280;3778;42.572;23.426;2023-02-19T11:52:55;93824.22;;;-146.70;35.09
7474;BME280;3778;42.572;23.426;2023-02-19T11:55:40;93720.06;;;-146.70;34.20
7474;BME280;3778;42.572;23.426;2023-02-19T11:58:31;93736.72;;;-146.70;34.93
7474;BME280;3778;42.572;23.426;2023-02-19T12:01:05;93717.97;;;-146.70;34.12
7474;BME280;3778;42.572;23.426;2023-02-19T12:03:53;93755.47;;;-146.70;34.01
7474;BME280;3778;42.572;23.426;2023-02-19T12:06:27;93697.13;;;-146.70;33.75
7474;BME280;3778;42.572;23.426;2023-02-19T12:11:59;93642.97;;;-146.70;33.92
7474;BME280;3778;42.572;23.426;2023-02-19T12:14:57;93565.88;;;-146.70;33.23
7474;BME280;3778;42.572;23.426;2023-02-19T12:20:30;93576.28;;;-146.70;32.94
7474;BME280;3778;42.572;23.426;2023-02-19T12:23:15;93645.06;;;-146.70;33.40
7474;BME280;3778;42.572;23.426;2023-02-19T12:25:56;93592.97;;;-146.70;32.93
7474;BME280;3778;42.572;23.426;2023-02-19T12:28:47;93555.47;;;-146.70;32.96
7474;BME280;3778;42.572;23.426;2023-02-19T12:34:30;93495.03;;;-146.70;32.20
7474;BME280;3778;42.572;23.426;2023-02-19T12:37:14;93440.88;;;-146.70;31.79
7474;BME280;3778;42.572;23.426;2023-02-19T12:39:47;93445.03;;;-146.70;31.53
7474;BME280;3778;42.572;23.426;2023-02-19T12:42:27;93276.28;;;-146.70;31.39
7474;BME280;3778;42.572;23.426;2023-02-19T12:44:57;93374.22;;;-146.70;30.88
7474;BME280;3778;42.572;23.426;2023-02-19T12:47:28;93436.72;;;-146.70;31.28
7474;BME280;3778;42.572;23.426;2023-02-19T12:50:02;93282.53;;;-146.70;30.57
7474;BME280;3778;42.572;23.426;2023-02-19T12:52:36;93276.28;;;-146.70;30.33
7474;BME280;3778;42.572;23.426;2023-02-19T12:55:12;93313.78;;;-146.70;30.73
7474;BME280;3778;42.572;23.426;2023-02-19T12:57:44;93240.88;;;-146.70;30.24
7474;BME280;3778;42.572;23.426;2023-02-19T13:00:25;93170.06;;;-146.70;29.98
7474;BME280;3778;42.572;23.426;2023-02-19T13:02:58;93132.56;;;-146.70;29.82
7474;BME280;3778;42.572;23.426;2023-02-19T13:05:37;93084.63;;;-146.70;29.41
7474;BME280;3778;42.572;23.426;2023-02-19T13:08:13;93134.63;;;-146.70;29.42
7474;BME280;3778;42.572;23.426;2023-02-19T13:10:45;93072.13;;;-146.70;29.23
7474;BME280;3778;42.572;23.426;2023-02-19T13:13:19;93088.81;;;-146.70;29.12
7474;BME280;3778;42.572;23.426;2023-02-19T13:15:51;92918.00;;;-146.70;28.43
7474;BME280;3778;42.572;23.426;2023-02-19T13:18:23;93009.66;;;-146.70;28.56
7474;BME280;3778;42.572;23.426;2023-02-19T13:20:52;93095.06;;;-146.70;29.00
7474;BME280;3778;42.572;23.426;2023-02-19T13:23:25;92982.56;;;-146.70;28.81
7474;BME280;3778;42.572;23.426;2023-02-19T13:26:30;92895.06;;;-146.70;28.29